• Join FlightAware (Why Join?)
  • Login
  • US Flag 
08:01PM EDT


 

Airport Tracker/Info


-or-


 

Live Flight TrackerFlight Track Log ✈ RPA3865 ✈ 29-Apr-2013 ✈ KORF - KEWR

Flight Track Log - Related Links

Times and Time Zones

All times are in EDT time to prevent confusion due to time zone crossing. See the RPA3865 flight status page for this flight to view local times or setup timezone preferences in your user account.

Time Position Orientation Groundspeed Altitude Reporting Facility
EDT Latitude Longitude Course Direction KTS MPH feet Rate Location/Type
06:08AM 36.9056 -76.1894 293° West 175 201 700  Level Washington Center
06:09AM 36.9642 -76.1508 28° Northeast 260 299 2,600 1,860 Climbing Washington Center
06:11AM 37.0498 -76.5228 300° West  Level FlightAware Approximate
06:11AM 37.0394 -76.1306 12° North 260 299 5,000  Level Washington Center
06:12AM 37.1010 -76.6356 300° West  Level FlightAware Approximate
06:12AM 37.0683 -76.2114 294° West 182 209 8,300  Level Washington Center
06:13AM 37.1523 -76.7484 300° West  Level FlightAware Approximate
06:13AM 37.0969 -76.2819 297° West 189 217 11,300  Level Washington Center
06:14AM 37.1991 -76.8640 293° West  Level FlightAware Approximate
06:14AM 37.1594 -76.3058 343° North 215 247 13,500  Level Washington Center
06:15AM 37.2303 -76.3328 343° North 232 267 15,400 1,860 Climbing Washington Center
06:16AM 37.3011 -76.3594 343° North 252 290 17,200 1,500 Climbing Washington Center
06:17AM 37.3717 -76.3836 345° North 262 302 18,500 1,320 Climbing Washington Center
06:18AM 37.4467 -76.4133 343° North 267 307 19,900 1,260 Climbing Washington Center
06:19AM 37.5133 -76.4375 344° North 267 307 21,000 540 Climbing Washington Center
06:20AM 37.5944 -76.4697 343° North 281 323 21,000  Level Washington Center
06:21AM 37.6839 -76.5022 344° North 312 359 21,000  Level Washington Center
06:22AM 37.7775 -76.5403 342° North 330 380 21,000  Level Washington Center
06:23AM 37.8731 -76.5756 344° North 350 403 21,000  Level Washington Center
06:24AM 37.9775 -76.5506 11° North 356 410 21,000  Level Washington Center
06:25AM 38.0800 -76.5069 19° North 370 426 21,000 -480 Level Washington Center
06:26AM 38.1847 -76.4661 17° North 375 432 20,100  Descending Washington Center
06:27AM 38.2850 -76.4275 17° North 380 437 21,000 -1,620 Climbing Washington Center
06:28AM 38.3936 -76.3892 15° North 380 437 17,000 -3,180 Descending Washington Center
06:29AM 38.4814 -76.3556 17° North 373 429 14,700 -1,980 Descending Washington Center
06:30AM 38.5756 -76.3192 17° North 359 413 13,100 -900 Descending Washington Center
06:31AM 38.6611 -76.2908 14° North 337 388 13,000 -60 Descending Washington Center
06:32AM 38.7531 -76.2625 14° North 332 382 13,000 -60 Level Washington Center
06:33AM 38.8408 -76.2286 17° North 332 382 12,900 -480 Descending Washington Center
06:34AM 38.9264 -76.1758 26° Northeast 332 382 12,100 -540 Descending Washington Center
06:35AM 39.0142 -76.1233 25° Northeast 338 389 11,900 -600 Descending Washington Center
06:36AM 39.1000 -76.0703 26° Northeast 338 389 11,000 -480 Descending Washington Center
06:37AM 39.1814 -76.0200 26° Northeast 333 383 11,000  Level Washington Center
06:38AM 39.2669 -75.9669 26° Northeast 333 383 11,000  Level Washington Center
06:40AM 39.4833 -75.8333 25° Northeast 338 389 11,100  Climbing Philadelphia TRACON
06:41AM 39.5333 -75.7500 52° Northeast 342 394 11,100  Level Philadelphia TRACON
06:42AM 39.5833 -75.6333 61° Northeast 341 392 11,100  Level Philadelphia TRACON
06:43AM 39.6333 -75.5167 61° Northeast 342 394 11,100  Level Philadelphia TRACON
06:44AM 39.6833 -75.4167 57° Northeast 341 392 11,100  Level Philadelphia TRACON
06:45AM 39.7167 -75.3000 70° East 340 391 11,100  Level Philadelphia TRACON
06:46AM 39.7667 -75.2000 57° Northeast 341 392 11,100 -60 Level Philadelphia TRACON
06:47AM 39.8167 -75.0833 61° Northeast 333 383 11,000 -600 Descending Philadelphia TRACON
06:48AM 39.8500 -75.0000 62° Northeast 284 327 9,900 -1,080 Descending Philadelphia TRACON
06:50AM 39.9833 -74.8167 46° Northeast 291 335 7,700 -900 Descending New York TRACON
06:51AM 40.0167 -74.7500 57° Northeast 283 326 7,100 -420 Descending New York TRACON
06:52AM 40.0667 -74.6833 46° Northeast 283 326 7,000 -60 Descending New York TRACON
06:53AM 40.1167 -74.6167 46° Northeast 280 322 7,000  Level New York TRACON
06:54AM 40.1833 -74.5333 44° Northeast 283 326 7,000  Level New York TRACON
06:55AM 40.2500 -74.4833 30° Northeast 285 328 7,100 -240 Climbing New York TRACON
06:56AM 40.3167 -74.5000 349° North 282 325 6,600 -540 Descending New York TRACON
06:57AM 40.4000 -74.5167 351° North 269 310 6,100 -300 Descending New York TRACON
06:58AM 40.4667 -74.5167 360° North 277 319 6,000 -60 Descending New York TRACON
06:59AM 40.5667 -74.5500 346° North 276 318 6,000  Level New York TRACON
07:00AM 40.6333 -74.5500 360° North 277 319 6,000  Level New York TRACON
07:01AM 40.7167 -74.5333 North 279 321 6,000  Level New York TRACON
07:02AM 40.7833 -74.5000 21° North 280 322 6,000 -480 Level New York TRACON
07:03AM 40.8500 -74.4333 37° Northeast 276 318 5,100 -540 Descending New York TRACON
07:04AM 40.9000 -74.3833 37° Northeast 266 306 5,000 -60 Descending New York TRACON
07:05AM 40.9333 -74.3000 62° Northeast 259 298 5,000 -480 Level New York TRACON
07:06AM 40.9167 -74.2167 105° East 248 285 4,200 -600 Descending New York TRACON
07:07AM 40.9000 -74.1333 105° East 192 221 3,800 -600 Descending New York TRACON
07:08AM 40.8667 -74.1000 143° Southeast 174 200 3,000 -600 Descending New York TRACON
07:09AM 40.8333 -74.0833 159° South 171 197 2,600 -600 Descending New York TRACON
07:10AM 40.7833 -74.1000 194° South 172 198 1,900 -720 Descending New York TRACON